sensor_id;sensor_type;location;lat;lon;timestamp;pressure;altitude;pressure_sealevel;temperature
69186;BMP280;56298;49.246;9.410;2023-08-24T00:00:28;99654.50;;;20.34
69186;BMP280;56298;49.246;9.410;2023-08-24T00:02:53;99656.06;;;20.35
69186;BMP280;56298;49.246;9.410;2023-08-24T00:05:19;99650.91;;;20.38
69186;BMP280;56298;49.246;9.410;2023-08-24T00:07:45;99650.16;;;20.30
69186;BMP280;56298;49.246;9.410;2023-08-24T00:10:10;99650.97;;;20.30
69186;BMP280;56298;49.246;9.410;2023-08-24T00:12:35;99649.66;;;20.39
69186;BMP280;56298;49.246;9.410;2023-08-24T00:15:01;99653.75;;;20.30
69186;BMP280;56298;49.246;9.410;2023-08-24T00:17:27;99659.09;;;20.17
69186;BMP280;56298;49.246;9.410;2023-08-24T00:19:53;99652.03;;;20.09
69186;BMP280;56298;49.246;9.410;2023-08-24T00:22:18;99652.38;;;20.11
69186;BMP280;56298;49.246;9.410;2023-08-24T00:24:43;99645.72;;;20.05
69186;BMP280;56298;49.246;9.410;2023-08-24T00:27:09;99647.38;;;19.99
69186;BMP280;56298;49.246;9.410;2023-08-24T00:29:34;99637.09;;;19.96
69186;BMP280;56298;49.246;9.410;2023-08-24T00:31:59;99627.22;;;19.87
69186;BMP280;56298;49.246;9.410;2023-08-24T00:34:25;99627.16;;;19.95
69186;BMP280;56298;49.246;9.410;2023-08-24T00:36:51;99626.41;;;19.90
69186;BMP280;56298;49.246;9.410;2023-08-24T00:39:16;99619.69;;;19.88
69186;BMP280;56298;49.246;9.410;2023-08-24T00:41:42;99613.75;;;19.86
69186;BMP280;56298;49.246;9.410;2023-08-24T00:44:07;99622.94;;;19.83
69186;BMP280;56298;49.246;9.410;2023-08-24T00:46:33;99613.09;;;19.74
69186;BMP280;56298;49.246;9.410;2023-08-24T00:48:59;99616.19;;;19.80
69186;BMP280;56298;49.246;9.410;2023-08-24T00:51:24;99606.00;;;19.70
69186;BMP280;56298;49.246;9.410;2023-08-24T00:53:50;99603.09;;;19.77
69186;BMP280;56298;49.246;9.410;2023-08-24T00:56:15;99600.78;;;19.72
69186;BMP280;56298;49.246;9.410;2023-08-24T00:58:41;99601.56;;;19.72
69186;BMP280;56298;49.246;9.410;2023-08-24T01:01:07;99603.03;;;19.81
69186;BMP280;56298;49.246;9.410;2023-08-24T01:03:32;99594.84;;;19.70
69186;BMP280;56298;49.246;9.410;2023-08-24T01:05:57;99593.16;;;19.76
69186;BMP280;56298;49.246;9.410;2023-08-24T01:08:23;99591.63;;;19.71
69186;BMP280;56298;49.246;9.410;2023-08-24T01:13:59;99600.06;;;19.64
69186;BMP280;56298;49.246;9.410;2023-08-24T01:16:31;99593.81;;;19.56
69186;BMP280;56298;49.246;9.410;2023-08-24T01:18:58;99603.75;;;19.54
69186;BMP280;56298;49.246;9.410;2023-08-24T01:21:25;99601.31;;;19.59
69186;BMP280;56298;49.246;9.410;2023-08-24T01:24:14;99603.66;;;19.65
69186;BMP280;56298;49.246;9.410;2023-08-24T01:26:42;99596.09;;;19.65
69186;BMP280;56298;49.246;9.410;2023-08-24T01:29:09;99593.91;;;19.80
69186;BMP280;56298;49.246;9.410;2023-08-24T01:31:34;99605.50;;;19.75
69186;BMP280;56298;49.246;9.410;2023-08-24T01:34:00;99593.09;;;19.83
69186;BMP280;56298;49.246;9.410;2023-08-24T01:36:26;99590.31;;;19.80
69186;BMP280;56298;49.246;9.410;2023-08-24T01:39:07;99589.53;;;19.83
69186;BMP280;56298;49.246;9.410;2023-08-24T01:41:36;99592.03;;;19.73
69186;BMP280;56298;49.246;9.410;2023-08-24T01:44:09;99592.81;;;19.70
69186;BMP280;56298;49.246;9.410;2023-08-24T01:46:37;99601.22;;;19.67
69186;BMP280;56298;49.246;9.410;2023-08-24T01:49:04;99608.03;;;19.62
69186;BMP280;56298;49.246;9.410;2023-08-24T01:51:31;99614.78;;;19.65
69186;BMP280;56298;49.246;9.410;2023-08-24T01:53:57;99616.03;;;19.60
69186;BMP280;56298;49.246;9.410;2023-08-24T01:56:23;99615.94;;;19.67
69186;BMP280;56298;49.246;9.410;2023-08-24T01:58:49;99607.63;;;19.64
69186;BMP280;56298;49.246;9.410;2023-08-24T02:01:14;99596.50;;;19.64
69186;BMP280;56298;49.246;9.410;2023-08-24T02:03:40;99589.75;;;19.65
69186;BMP280;56298;49.246;9.410;2023-08-24T02:06:06;99596.50;;;19.64
69186;BMP280;56298;49.246;9.410;2023-08-24T02:08:32;99600.94;;;19.57
69186;BMP280;56298;49.246;9.410;2023-08-24T02:10:57;99600.47;;;19.62
69186;BMP280;56298;49.246;9.410;2023-08-24T02:13:22;99601.72;;;19.58
69186;BMP280;56298;49.246;9.410;2023-08-24T02:15:48;99601.66;;;19.65
69186;BMP280;56298;49.246;9.410;2023-08-24T02:18:13;99611.25;;;19.57
69186;BMP280;56298;49.246;9.410;2023-08-24T02:20:38;99609.31;;;19.54
69186;BMP280;56298;49.246;9.410;2023-08-24T02:23:04;99603.78;;;19.50
69186;BMP280;56298;49.246;9.410;2023-08-24T02:25:30;99601.00;;;19.50
69186;BMP280;56298;49.246;9.410;2023-08-24T02:27:55;99601.38;;;19.52
69186;BMP280;56298;49.246;9.410;2023-08-24T02:30:21;99610.22;;;19.47
69186;BMP280;56298;49.246;9.410;2023-08-24T02:32:46;99601.56;;;19.38
69186;BMP280;56298;49.246;9.410;2023-08-24T02:35:11;99607.91;;;19.35
69186;BMP280;56298;49.246;9.410;2023-08-24T02:37:37;99603.47;;;19.44
69186;BMP280;56298;49.246;9.410;2023-08-24T02:40:02;99602.97;;;19.53
69186;BMP280;56298;49.246;9.410;2023-08-24T02:42:30;99602.63;;;19.51
69186;BMP280;56298;49.246;9.410;2023-08-24T02:44:56;99599.38;;;19.56
69186;BMP280;56298;49.246;9.410;2023-08-24T02:47:21;99604.53;;;19.54
69186;BMP280;56298;49.246;9.410;2023-08-24T02:49:47;99604.94;;;19.53
69186;BMP280;56298;49.246;9.410;2023-08-24T02:52:12;99599.03;;;19.51
69186;BMP280;56298;49.246;9.410;2023-08-24T02:54:37;99597.81;;;19.52
69186;BMP280;56298;49.246;9.410;2023-08-24T02:57:02;99584.75;;;19.45
69186;BMP280;56298;49.246;9.410;2023-08-24T02:59:28;99580.94;;;19.31
69186;BMP280;56298;49.246;9.410;2023-08-24T03:01:53;99578.16;;;19.31
69186;BMP280;56298;49.246;9.410;2023-08-24T03:04:20;99583.00;;;19.27
69186;BMP280;56298;49.246;9.410;2023-08-24T03:06:46;99581.72;;;19.32
69186;BMP280;56298;49.246;9.410;2023-08-24T03:09:11;99583.34;;;19.29
69186;BMP280;56298;49.246;9.410;2023-08-24T03:11:37;99574.59;;;19.31
69186;BMP280;56298;49.246;9.410;2023-08-24T03:14:03;99571.88;;;19.24
69186;BMP280;56298;49.246;9.410;2023-08-24T03:16:29;99569.94;;;19.21
69186;BMP280;56298;49.246;9.410;2023-08-24T03:18:54;99572.72;;;19.17
69186;BMP280;56298;49.246;9.410;2023-08-24T03:21:20;99549.25;;;19.22
69186;BMP280;56298;49.246;9.410;2023-08-24T03:23:45;99556.84;;;19.17
69186;BMP280;56298;49.246;9.410;2023-08-24T03:26:10;99547.00;;;19.09
69186;BMP280;56298;49.246;9.410;2023-08-24T03:28:35;99540.34;;;18.99
69186;BMP280;56298;49.246;9.410;2023-08-24T03:31:01;99535.94;;;19.02
69186;BMP280;56298;49.246;9.410;2023-08-24T03:33:26;99534.75;;;19.03
69186;BMP280;56298;49.246;9.410;2023-08-24T03:35:53;99540.22;;;19.10
69186;BMP280;56298;49.246;9.410;2023-08-24T03:38:18;99539.06;;;19.08
69186;BMP280;56298;49.246;9.410;2023-08-24T03:40:43;99537.56;;;18.99
69186;BMP280;56298;49.246;9.410;2023-08-24T03:43:09;99537.56;;;18.96
69186;BMP280;56298;49.246;9.410;2023-08-24T03:45:34;99526.09;;;18.94
69186;BMP280;56298;49.246;9.410;2023-08-24T03:47:59;99521.34;;;18.94
69186;BMP280;56298;49.246;9.410;2023-08-24T03:50:25;99520.94;;;18.92
69186;BMP280;56298;49.246;9.410;2023-08-24T03:52:51;99519.28;;;19.02
69186;BMP280;56298;49.246;9.410;2023-08-24T03:55:16;99521.59;;;19.07
69186;BMP280;56298;49.246;9.410;2023-08-24T03:57:42;99517.97;;;19.10
69186;BMP280;56298;49.246;9.410;2023-08-24T04:00:08;99513.59;;;19.13
69186;BMP280;56298;49.246;9.410;2023-08-24T04:02:38;99516.81;;;19.11
69186;BMP280;56298;49.246;9.410;2023-08-24T04:05:04;99519.97;;;19.13
69186;BMP280;56298;49.246;9.410;2023-08-24T04:07:29;99521.84;;;19.20
69186;BMP280;56298;49.246;9.410;2023-08-24T04:09:54;99525.38;;;19.24
69186;BMP280;56298;49.246;9.410;2023-08-24T04:12:20;99533.66;;;19.31
69186;BMP280;56298;49.246;9.410;2023-08-24T04:14:45;99524.47;;;19.35
69186;BMP280;56298;49.246;9.410;2023-08-24T04:17:10;99520.41;;;19.46
69186;BMP280;56298;49.246;9.410;2023-08-24T04:19:37;99508.50;;;19.46
69186;BMP280;56298;49.246;9.410;2023-08-24T04:22:03;99508.84;;;19.48
69186;BMP280;56298;49.246;9.410;2023-08-24T04:24:28;99512.00;;;19.50
69186;BMP280;56298;49.246;9.410;2023-08-24T04:26:54;99503.56;;;19.57
69186;BMP280;56298;49.246;9.410;2023-08-24T04:29:19;99500.44;;;19.55
69186;BMP280;56298;49.246;9.410;2023-08-24T04:31:44;99486.94;;;19.54
69186;BMP280;56298;49.246;9.410;2023-08-24T04:34:09;99481.81;;;19.49
69186;BMP280;56298;49.246;9.410;2023-08-24T04:36:36;99463.88;;;19.53
69186;BMP280;56298;49.246;9.410;2023-08-24T04:39:02;99462.16;;;19.63
69186;BMP280;56298;49.246;9.410;2023-08-24T04:41:27;99463.41;;;19.58
69186;BMP280;56298;49.246;9.410;2023-08-24T04:43:52;99470.97;;;19.58
69186;BMP280;56298;49.246;9.410;2023-08-24T04:46:17;99473.22;;;19.67
69186;BMP280;56298;49.246;9.410;2023-08-24T04:48:43;99480.41;;;19.95
69186;BMP280;56298;49.246;9.410;2023-08-24T04:51:08;99482.53;;;20.15
69186;BMP280;56298;49.246;9.410;2023-08-24T04:53:34;99486.28;;;20.28
69186;BMP280;56298;49.246;9.410;2023-08-24T04:55:59;99484.94;;;20.36
69186;BMP280;56298;49.246;9.410;2023-08-24T04:58:24;99484.56;;;20.34
69186;BMP280;56298;49.246;9.410;2023-08-24T05:00:50;99487.03;;;20.29
69186;BMP280;56298;49.246;9.410;2023-08-24T05:03:15;99483.00;;;20.33
69186;BMP280;56298;49.246;9.410;2023-08-24T05:05:41;99480.00;;;20.24
69186;BMP280;56298;49.246;9.410;2023-08-24T05:08:06;99470.72;;;20.31
69186;BMP280;56298;49.246;9.410;2023-08-24T05:10:35;99456.34;;;20.32
69186;BMP280;56298;49.246;9.410;2023-08-24T05:13:00;99456.78;;;20.31
69186;BMP280;56298;49.246;9.410;2023-08-24T05:15:26;99448.81;;;20.33
69186;BMP280;56298;49.246;9.410;2023-08-24T05:17:51;99446.56;;;20.48
69186;BMP280;56298;49.246;9.410;2023-08-24T05:20:24;99449.25;;;20.51
69186;BMP280;56298;49.246;9.410;2023-08-24T05:22:49;99452.78;;;20.56
69186;BMP280;56298;49.246;9.410;2023-08-24T05:25:15;99447.41;;;20.45
69186;BMP280;56298;49.246;9.410;2023-08-24T05:27:43;99452.78;;;20.56
69186;BMP280;56298;49.246;9.410;2023-08-24T05:30:09;99455.31;;;20.70
69186;BMP280;56298;49.246;9.410;2023-08-24T05:32:34;99458.66;;;20.81
69186;BMP280;56298;49.246;9.410;2023-08-24T05:35:06;99455.69;;;20.92
69186;BMP280;56298;49.246;9.410;2023-08-24T05:37:32;99463.13;;;20.99
69186;BMP280;56298;49.246;9.410;2023-08-24T05:39:59;99455.91;;;21.02
69186;BMP280;56298;49.246;9.410;2023-08-24T05:42:25;99455.41;;;21.07
69186;BMP280;56298;49.246;9.410;2023-08-24T05:44:52;99453.69;;;20.93
69186;BMP280;56298;49.246;9.410;2023-08-24T05:47:18;99464.06;;;21.13
69186;BMP280;56298;49.246;9.410;2023-08-24T05:49:43;99453.63;;;21.17
69186;BMP280;56298;49.246;9.410;2023-08-24T05:52:12;99453.63;;;21.17
69186;BMP280;56298;49.246;9.410;2023-08-24T05:54:42;99459.34;;;21.09
69186;BMP280;56298;49.246;9.410;2023-08-24T05:57:07;99449.06;;;21.27
69186;BMP280;56298;49.246;9.410;2023-08-24T05:59:33;99450.75;;;21.40
69186;BMP280;56298;49.246;9.410;2023-08-24T06:01:59;99450.00;;;21.57
69186;BMP280;56298;49.246;9.410;2023-08-24T06:04:24;99455.59;;;21.73
69186;BMP280;56298;49.246;9.410;2023-08-24T06:06:49;99455.34;;;22.17
69186;BMP280;56298;49.246;9.410;2023-08-24T06:09:15;99447.66;;;22.97
69186;BMP280;56298;49.246;9.410;2023-08-24T06:11:40;99444.69;;;23.81
69186;BMP280;56298;49.246;9.410;2023-08-24T06:14:06;99446.81;;;24.38
69186;BMP280;56298;49.246;9.410;2023-08-24T06:16:34;99453.03;;;24.07
69186;BMP280;56298;49.246;9.410;2023-08-24T06:19:00;99454.56;;;24.56
69186;BMP280;56298;49.246;9.410;2023-08-24T06:21:28;99460.84;;;25.37
69186;BMP280;56298;49.246;9.410;2023-08-24T06:23:54;99462.88;;;26.42
69186;BMP280;56298;49.246;9.410;2023-08-24T06:26:19;99472.97;;;26.86
69186;BMP280;56298;49.246;9.410;2023-08-24T06:28:45;99480.31;;;27.69
69186;BMP280;56298;49.246;9.410;2023-08-24T06:31:12;99496.84;;;28.25
69186;BMP280;56298;49.246;9.410;2023-08-24T06:33:38;99508.50;;;28.33
69186;BMP280;56298;49.246;9.410;2023-08-24T06:36:04;99517.03;;;27.08
69186;BMP280;56298;49.246;9.410;2023-08-24T06:38:37;99538.28;;;25.56
69186;BMP280;56298;49.246;9.410;2023-08-24T06:41:03;99539.25;;;25.09
69186;BMP280;56298;49.246;9.410;2023-08-24T06:43:28;99551.81;;;24.60
69186;BMP280;56298;49.246;9.410;2023-08-24T06:45:54;99556.66;;;24.33
69186;BMP280;56298;49.246;9.410;2023-08-24T06:48:20;99558.28;;;23.95
69186;BMP280;56298;49.246;9.410;2023-08-24T06:50:46;99562.13;;;23.76
69186;BMP280;56298;49.246;9.410;2023-08-24T06:53:14;99559.94;;;23.67
69186;BMP280;56298;49.246;9.410;2023-08-24T06:55:44;99552.88;;;23.49
69186;BMP280;56298;49.246;9.410;2023-08-24T06:58:10;99553.66;;;23.50
69186;BMP280;56298;49.246;9.410;2023-08-24T07:00:35;99547.72;;;23.61
69186;BMP280;56298;49.246;9.410;2023-08-24T07:03:01;99554.91;;;24.39
69186;BMP280;56298;49.246;9.410;2023-08-24T07:05:26;99549.03;;;25.89
69186;BMP280;56298;49.246;9.410;2023-08-24T07:07:53;99544.75;;;27.43
69186;BMP280;56298;49.246;9.410;2023-08-24T07:10:19;99539.59;;;28.48
69186;BMP280;56298;49.246;9.410;2023-08-24T07:12:45;99530.47;;;29.28
69186;BMP280;56298;49.246;9.410;2023-08-24T07:15:13;99528.72;;;29.15
69186;BMP280;56298;49.246;9.410;2023-08-24T07:17:39;99535.16;;;28.86
69186;BMP280;56298;49.246;9.410;2023-08-24T07:20:05;99523.38;;;27.94
69186;BMP280;56298;49.246;9.410;2023-08-24T07:22:32;99504.69;;;28.60
69186;BMP280;56298;49.246;9.410;2023-08-24T07:24:58;99478.88;;;28.82
69186;BMP280;56298;49.246;9.410;2023-08-24T07:27:23;99469.81;;;27.36
69186;BMP280;56298;49.246;9.410;2023-08-24T07:29:48;99462.06;;;26.69
69186;BMP280;56298;49.246;9.410;2023-08-24T07:32:14;99452.28;;;26.28
69186;BMP280;56298;49.246;9.410;2023-08-24T07:34:39;99444.59;;;26.28
69186;BMP280;56298;49.246;9.410;2023-08-24T07:37:05;99440.38;;;26.14
69186;BMP280;56298;49.246;9.410;2023-08-24T07:39:30;99436.88;;;25.63
69186;BMP280;56298;49.246;9.410;2023-08-24T07:41:55;99435.31;;;25.62
69186;BMP280;56298;49.246;9.410;2023-08-24T07:44:21;99437.03;;;25.69
69186;BMP280;56298;49.246;9.410;2023-08-24T07:46:47;99445.28;;;25.63
69186;BMP280;56298;49.246;9.410;2023-08-24T07:49:12;99456.22;;;25.61
69186;BMP280;56298;49.246;9.410;2023-08-24T07:51:37;99465.47;;;25.81
69186;BMP280;56298;49.246;9.410;2023-08-24T07:54:03;99474.19;;;25.64
69186;BMP280;56298;49.246;9.410;2023-08-24T07:56:29;99472.72;;;25.50
69186;BMP280;56298;49.246;9.410;2023-08-24T07:58:55;99479.88;;;25.42
69186;BMP280;56298;49.246;9.410;2023-08-24T08:01:20;99487.88;;;25.62
69186;BMP280;56298;49.246;9.410;2023-08-24T08:03:45;99491.31;;;26.16
69186;BMP280;56298;49.246;9.410;2023-08-24T08:06:11;99479.91;;;27.18
69186;BMP280;56298;49.246;9.410;2023-08-24T08:08:38;99484.16;;;28.05
69186;BMP280;56298;49.246;9.410;2023-08-24T08:11:03;99487.94;;;28.71
69186;BMP280;56298;49.246;9.410;2023-08-24T08:13:29;99485.09;;;29.52
69186;BMP280;56298;49.246;9.410;2023-08-24T08:16:00;99484.88;;;29.97
69186;BMP280;56298;49.246;9.410;2023-08-24T08:18:26;99495.06;;;30.36
69186;BMP280;56298;49.246;9.410;2023-08-24T08:20:51;99483.56;;;31.03
69186;BMP280;56298;49.246;9.410;2023-08-24T08:23:17;99484.31;;;31.47
69186;BMP280;56298;49.246;9.410;2023-08-24T08:25:42;99482.06;;;31.63
69186;BMP280;56298;49.246;9.410;2023-08-24T08:28:08;99484.47;;;31.21
69186;BMP280;56298;49.246;9.410;2023-08-24T08:30:33;99481.59;;;30.77
69186;BMP280;56298;49.246;9.410;2023-08-24T08:32:58;99490.94;;;30.37
69186;BMP280;56298;49.246;9.410;2023-08-24T08:35:23;99495.69;;;30.45
69186;BMP280;56298;49.246;9.410;2023-08-24T08:37:49;99494.16;;;30.44
69186;BMP280;56298;49.246;9.410;2023-08-24T08:40:15;99498.63;;;30.30
69186;BMP280;56298;49.246;9.410;2023-08-24T08:42:40;99498.81;;;30.01
69186;BMP280;56298;49.246;9.410;2023-08-24T08:45:09;99490.59;;;30.03
69186;BMP280;56298;49.246;9.410;2023-08-24T08:47:34;99488.00;;;29.58
69186;BMP280;56298;49.246;9.410;2023-08-24T08:50:02;99481.69;;;29.89
69186;BMP280;56298;49.246;9.410;2023-08-24T08:52:28;99481.72;;;30.10
69186;BMP280;56298;49.246;9.410;2023-08-24T08:54:53;99483.09;;;29.99
69186;BMP280;56298;49.246;9.410;2023-08-24T08:57:19;99490.03;;;29.78
69186;BMP280;56298;49.246;9.410;2023-08-24T08:59:46;99484.22;;;30.08
69186;BMP280;56298;49.246;9.410;2023-08-24T09:02:16;99480.03;;;30.24
69186;BMP280;56298;49.246;9.410;2023-08-24T09:04:41;99470.22;;;30.45
69186;BMP280;56298;49.246;9.410;2023-08-24T09:07:09;99476.91;;;30.74
69186;BMP280;56298;49.246;9.410;2023-08-24T09:09:37;99469.50;;;30.51
69186;BMP280;56298;49.246;9.410;2023-08-24T09:12:05;99467.09;;;30.75
69186;BMP280;56298;49.246;9.410;2023-08-24T09:14:30;99461.69;;;31.04
69186;BMP280;56298;49.246;9.410;2023-08-24T09:16:56;99455.72;;;31.02
69186;BMP280;56298;49.246;9.410;2023-08-24T09:19:27;99445.13;;;30.97
69186;BMP280;56298;49.246;9.410;2023-08-24T09:21:56;99440.63;;;31.22
69186;BMP280;56298;49.246;9.410;2023-08-24T09:24:32;99429.72;;;31.03
69186;BMP280;56298;49.246;9.410;2023-08-24T09:26:58;99420.69;;;30.99
69186;BMP280;56298;49.246;9.410;2023-08-24T09:29:23;99414.66;;;31.23
69186;BMP280;56298;49.246;9.410;2023-08-24T09:31:50;99412.22;;;31.05
69186;BMP280;56298;49.246;9.410;2023-08-24T09:34:19;99406.19;;;31.29
69186;BMP280;56298;49.246;9.410;2023-08-24T09:36:45;99398.94;;;31.28
69186;BMP280;56298;49.246;9.410;2023-08-24T09:39:10;99396.69;;;31.38
69186;BMP280;56298;49.246;9.410;2023-08-24T09:41:46;99380.19;;;31.42
69186;BMP280;56298;49.246;9.410;2023-08-24T09:44:12;99385.28;;;31.21
69186;BMP280;56298;49.246;9.410;2023-08-24T09:46:39;99369.44;;;30.97
69186;BMP280;56298;49.246;9.410;2023-08-24T09:49:05;99377.53;;;31.27
69186;BMP280;56298;49.246;9.410;2023-08-24T09:51:36;99377.13;;;31.51
69186;BMP280;56298;49.246;9.410;2023-08-24T09:54:07;99357.06;;;31.72
69186;BMP280;56298;49.246;9.410;2023-08-24T09:56:37;99358.38;;;31.82
69186;BMP280;56298;49.246;9.410;2023-08-24T09:59:13;99341.88;;;32.03
69186;BMP280;56298;49.246;9.410;2023-08-24T10:01:45;99333.88;;;32.08
69186;BMP280;56298;49.246;9.410;2023-08-24T10:04:13;99335.94;;;31.90
69186;BMP280;56298;49.246;9.410;2023-08-24T10:06:40;99338.25;;;32.37
69186;BMP280;56298;49.246;9.410;2023-08-24T10:14:21;99321.22;;;32.48
69186;BMP280;56298;49.246;9.410;2023-08-24T10:16:50;99324.25;;;32.62
69186;BMP280;56298;49.246;9.410;2023-08-24T10:19:16;99319.72;;;33.06
69186;BMP280;56298;49.246;9.410;2023-08-24T10:21:42;99316.28;;;33.19
69186;BMP280;56298;49.246;9.410;2023-08-24T10:24:08;99318.69;;;33.04
69186;BMP280;56298;49.246;9.410;2023-08-24T10:26:36;99321.72;;;33.59
69186;BMP280;56298;49.246;9.410;2023-08-24T10:29:03;99315.91;;;33.76
69186;BMP280;56298;49.246;9.410;2023-08-24T10:31:29;99303.13;;;33.88
69186;BMP280;56298;49.246;9.410;2023-08-24T10:34:01;99312.69;;;34.15
69186;BMP280;56298;49.246;9.410;2023-08-24T10:36:31;99300.94;;;34.30
69186;BMP280;56298;49.246;9.410;2023-08-24T10:39:02;99300.94;;;34.30
69186;BMP280;56298;49.246;9.410;2023-08-24T10:41:46;99299.31;;;34.35
69186;BMP280;56298;49.246;9.410;2023-08-24T10:44:19;99294.03;;;34.20
69186;BMP280;56298;49.246;9.410;2023-08-24T10:47:24;99285.81;;;34.17
69186;BMP280;56298;49.246;9.410;2023-08-24T10:52:23;99273.63;;;33.61
69186;BMP280;56298;49.246;9.410;2023-08-24T10:54:50;99266.41;;;33.24
69186;BMP280;56298;49.246;9.410;2023-08-24T10:59:45;99259.75;;;33.10
69186;BMP280;56298;49.246;9.410;2023-08-24T11:02:18;99255.50;;;33.28
69186;BMP280;56298;49.246;9.410;2023-08-24T11:05:03;99242.09;;;33.59
69186;BMP280;56298;49.246;9.410;2023-08-24T11:07:29;99243.22;;;33.44
69186;BMP280;56298;49.246;9.410;2023-08-24T11:09:54;99242.59;;;33.57
69186;BMP280;56298;49.246;9.410;2023-08-24T11:12:25;99232.88;;;33.47
69186;BMP280;56298;49.246;9.410;2023-08-24T11:14:52;99227.16;;;33.83
69186;BMP280;56298;49.246;9.410;2023-08-24T11:17:24;99225.28;;;33.61
69186;BMP280;56298;49.246;9.410;2023-08-24T11:19:51;99223.81;;;33.79
69186;BMP280;56298;49.246;9.410;2023-08-24T11:22:20;99203.88;;;34.04
69186;BMP280;56298;49.246;9.410;2023-08-24T11:24:46;99212.72;;;34.00
69186;BMP280;56298;49.246;9.410;2023-08-24T11:27:12;99212.72;;;34.00
69186;BMP280;56298;49.246;9.410;2023-08-24T11:29:37;99197.31;;;34.14
69186;BMP280;56298;49.246;9.410;2023-08-24T11:32:03;99188.81;;;34.09
69186;BMP280;56298;49.246;9.410;2023-08-24T11:34:29;99188.06;;;34.08
69186;BMP280;56298;49.246;9.410;2023-08-24T11:36:58;99188.06;;;34.08
69186;BMP280;56298;49.246;9.410;2023-08-24T11:39:23;99190.00;;;33.94
69186;BMP280;56298;49.246;9.410;2023-08-24T11:41:58;99187.09;;;34.00
69186;BMP280;56298;49.246;9.410;2023-08-24T11:44:23;99190.38;;;33.85
69186;BMP280;56298;49.246;9.410;2023-08-24T11:46:49;99182.50;;;33.72
69186;BMP280;56298;49.246;9.410;2023-08-24T11:49:14;99178.88;;;33.96
69186;BMP280;56298;49.246;9.410;2023-08-24T11:51:41;99176.97;;;34.05
69186;BMP280;56298;49.246;9.410;2023-08-24T11:54:09;99175.78;;;34.19
69186;BMP280;56298;49.246;9.410;2023-08-24T11:56:42;99174.78;;;34.17
69186;BMP280;56298;49.246;9.410;2023-08-24T11:59:12;99168.91;;;34.09
69186;BMP280;56298;49.246;9.410;2023-08-24T12:01:37;99166.75;;;34.15
69186;BMP280;56298;49.246;9.410;2023-08-24T12:04:05;99159.94;;;34.43
69186;BMP280;56298;49.246;9.410;2023-08-24T12:06:31;99159.78;;;34.35
69186;BMP280;56298;49.246;9.410;2023-08-24T12:08:57;99163.66;;;34.38
69186;BMP280;56298;49.246;9.410;2023-08-24T12:11:22;99157.47;;;34.34
69186;BMP280;56298;49.246;9.410;2023-08-24T12:13:52;99154.41;;;34.51
69186;BMP280;56298;49.246;9.410;2023-08-24T12:16:20;99145.94;;;34.64
69186;BMP280;56298;49.246;9.410;2023-08-24T12:18:51;99141.09;;;34.59
69186;BMP280;56298;49.246;9.410;2023-08-24T12:21:17;99141.09;;;34.59
69186;BMP280;56298;49.246;9.410;2023-08-24T12:23:45;99137.41;;;34.77
69186;BMP280;56298;49.246;9.410;2023-08-24T12:26:18;99132.31;;;34.89
69186;BMP280;56298;49.246;9.410;2023-08-24T12:28:43;99132.31;;;34.89
69186;BMP280;56298;49.246;9.410;2023-08-24T12:31:17;99121.44;;;35.20
69186;BMP280;56298;49.246;9.410;2023-08-24T12:44:05;99089.59;;;34.89
69186;BMP280;56298;49.246;9.410;2023-08-24T12:46:32;99095.94;;;34.95
69186;BMP280;56298;49.246;9.410;2023-08-24T12:48:57;99095.94;;;34.95
69186;BMP280;56298;49.246;9.410;2023-08-24T12:51:23;99089.09;;;35.44
69186;BMP280;56298;49.246;9.410;2023-08-24T12:53:49;99089.09;;;35.44
69186;BMP280;56298;49.246;9.410;2023-08-24T12:56:15;99080.88;;;35.54
69186;BMP280;56298;49.246;9.410;2023-08-24T12:58:40;99081.28;;;35.72
69186;BMP280;56298;49.246;9.410;2023-08-24T13:01:05;99081.28;;;35.72
69186;BMP280;56298;49.246;9.410;2023-08-24T13:03:31;99066.81;;;35.29
69186;BMP280;56298;49.246;9.410;2023-08-24T13:05:56;99061.22;;;35.37
69186;BMP280;56298;49.246;9.410;2023-08-24T13:08:21;99050.16;;;35.47
69186;BMP280;56298;49.246;9.410;2023-08-24T13:10:47;99053.78;;;35.34
69186;BMP280;56298;49.246;9.410;2023-08-24T13:13:12;99047.97;;;35.26
69186;BMP280;56298;49.246;9.410;2023-08-24T13:15:37;99040.06;;;35.33
69186;BMP280;56298;49.246;9.410;2023-08-24T13:18:03;99044.75;;;34.90
69186;BMP280;56298;49.246;9.410;2023-08-24T13:20:28;99030.50;;;34.90
69186;BMP280;56298;49.246;9.410;2023-08-24T13:22:54;99033.78;;;34.94
69186;BMP280;56298;49.246;9.410;2023-08-24T13:25:19;99033.78;;;34.94
69186;BMP280;56298;49.246;9.410;2023-08-24T13:27:44;99028.16;;;34.88
69186;BMP280;56298;49.246;9.410;2023-08-24T13:30:10;99025.22;;;34.94
69186;BMP280;56298;49.246;9.410;2023-08-24T13:32:35;99021.91;;;34.76
69186;BMP280;56298;49.246;9.410;2023-08-24T13:35:01;99026.31;;;34.91
69186;BMP280;56298;49.246;9.410;2023-08-24T13:37:27;99019.44;;;35.00
69186;BMP280;56298;49.246;9.410;2023-08-24T13:39:52;99011.34;;;35.17
69186;BMP280;56298;49.246;9.410;2023-08-24T13:42:17;99005.94;;;35.13
69186;BMP280;56298;49.246;9.410;2023-08-24T13:44:44;99008.66;;;34.79
69186;BMP280;56298;49.246;9.410;2023-08-24T13:47:09;98998.91;;;34.88
69186;BMP280;56298;49.246;9.410;2023-08-24T13:49:34;98993.09;;;34.67
69186;BMP280;56298;49.246;9.410;2023-08-24T13:52:00;98992.09;;;34.64
69186;BMP280;56298;49.246;9.410;2023-08-24T13:54:25;98992.31;;;34.34
69186;BMP280;56298;49.246;9.410;2023-08-24T13:56:52;98995.84;;;34.40
69186;BMP280;56298;49.246;9.410;2023-08-24T13:59:19;98988.16;;;34.35
69186;BMP280;56298;49.246;9.410;2023-08-24T14:01:44;98982.28;;;34.46
69186;BMP280;56298;49.246;9.410;2023-08-24T14:04:10;98995.03;;;34.58
69186;BMP280;56298;49.246;9.410;2023-08-24T14:06:35;98995.41;;;34.95
69186;BMP280;56298;49.246;9.410;2023-08-24T14:09:02;99002.66;;;35.09
69186;BMP280;56298;49.246;9.410;2023-08-24T14:11:28;99005.41;;;35.02
69186;BMP280;56298;49.246;9.410;2023-08-24T14:13:53;99013.94;;;35.02
69186;BMP280;56298;49.246;9.410;2023-08-24T14:16:19;99013.94;;;35.02
69186;BMP280;56298;49.246;9.410;2023-08-24T14:18:48;99005.91;;;34.73
69186;BMP280;56298;49.246;9.410;2023-08-24T14:21:13;99006.16;;;34.43
69186;BMP280;56298;49.246;9.410;2023-08-24T14:23:39;99011.13;;;34.56
69186;BMP280;56298;49.246;9.410;2023-08-24T14:26:05;99009.47;;;34.60
69186;BMP280;56298;49.246;9.410;2023-08-24T14:28:50;99016.69;;;34.94